createdAt,value
2018-12-14T00:02:12.800Z,-5.67
2018-12-14T00:04:40.431Z,-5.61
2018-12-14T00:07:08.062Z,-5.61
2018-12-14T00:09:35.735Z,-5.60
2018-12-14T00:12:03.341Z,-5.57
2018-12-14T00:14:31.042Z,-5.59
2018-12-14T00:16:58.623Z,-5.51
2018-12-14T00:19:26.294Z,-5.59
2018-12-14T00:21:53.894Z,-5.50
2018-12-14T00:24:21.464Z,-5.53
2018-12-14T00:26:49.097Z,-5.43
2018-12-14T00:29:16.763Z,-5.42
2018-12-14T00:31:44.389Z,-5.32
2018-12-14T00:34:12.008Z,-5.43
2018-12-14T00:36:39.662Z,-5.36
2018-12-14T00:39:07.281Z,-5.38
2018-12-14T00:41:34.965Z,-5.47
2018-12-14T00:44:02.575Z,-5.43
2018-12-14T00:46:30.245Z,-5.43
2018-12-14T00:48:57.838Z,-5.43
2018-12-14T00:51:25.469Z,-5.36
2018-12-14T00:53:53.106Z,-5.36
2018-12-14T00:56:20.739Z,-5.40
2018-12-14T00:58:48.378Z,-5.41
2018-12-14T01:01:16.024Z,-5.44
2018-12-14T01:03:43.626Z,-5.53
2018-12-14T01:06:11.286Z,-5.53
2018-12-14T01:08:38.865Z,-5.62
2018-12-14T01:11:06.506Z,-5.84
2018-12-14T01:13:34.151Z,-5.69
2018-12-14T01:16:01.788Z,-5.64
2018-12-14T01:18:29.399Z,-5.70
2018-12-14T01:20:57.073Z,-5.97
2018-12-14T01:23:24.761Z,-6.00
2018-12-14T01:25:52.345Z,-6.02
2018-12-14T01:28:20.065Z,-6.04
2018-12-14T01:30:47.651Z,-5.95
2018-12-14T01:33:15.314Z,-5.92
2018-12-14T01:35:42.882Z,-5.88
2018-12-14T01:38:10.464Z,-6.06
2018-12-14T01:40:38.127Z,-6.09
2018-12-14T01:43:05.748Z,-6.05
2018-12-14T01:45:33.417Z,-6.05
2018-12-14T01:48:01.063Z,-6.07
2018-12-14T01:50:28.707Z,-6.09
2018-12-14T01:52:56.326Z,-6.34
2018-12-14T01:55:24.193Z,-6.35
2018-12-14T01:57:52.035Z,-6.32
2018-12-14T02:00:19.719Z,-6.43
2018-12-14T02:02:47.570Z,-6.62
2018-12-14T02:05:15.142Z,-6.78
2018-12-14T02:07:42.719Z,-6.67
2018-12-14T02:10:10.472Z,-6.66
2018-12-14T02:12:38.058Z,-6.85
2018-12-14T02:15:05.729Z,-7.18
2018-12-14T02:17:33.372Z,-7.01
2018-12-14T02:20:00.946Z,-6.89
2018-12-14T02:22:28.667Z,-7.06
2018-12-14T02:24:56.361Z,-7.06
2018-12-14T02:27:23.942Z,-6.90
2018-12-14T02:29:51.582Z,-6.91
2018-12-14T02:32:19.183Z,-6.96
2018-12-14T02:34:46.843Z,-6.92
2018-12-14T02:37:14.427Z,-6.92
2018-12-14T02:39:41.997Z,-7.21
2018-12-14T02:42:09.650Z,-7.20
2018-12-14T02:44:37.278Z,-7.13
2018-12-14T02:47:04.893Z,-7.12
2018-12-14T02:49:32.539Z,-7.24
2018-12-14T02:52:00.132Z,-7.29
2018-12-14T02:54:27.785Z,-7.32
2018-12-14T02:56:55.422Z,-7.55
2018-12-14T02:59:22.991Z,-7.29
2018-12-14T03:01:50.653Z,-7.17
2018-12-14T03:04:18.311Z,-7.15
2018-12-14T03:06:45.931Z,-7.24
2018-12-14T03:09:13.528Z,-7.44
2018-12-14T03:11:41.185Z,-7.30
2018-12-14T03:14:08.817Z,-7.24
2018-12-14T03:16:36.520Z,-7.29
2018-12-14T03:19:04.304Z,-7.50
2018-12-14T03:21:31.941Z,-7.44
2018-12-14T03:23:59.563Z,-7.48
2018-12-14T03:26:27.278Z,-7.54
2018-12-14T03:28:54.951Z,-7.58
2018-12-14T03:31:22.619Z,-7.65
2018-12-14T03:33:50.234Z,-7.60
2018-12-14T03:36:17.856Z,-7.55
2018-12-14T03:38:45.523Z,-7.58
2018-12-14T03:41:13.889Z,-7.30
2018-12-14T03:43:41.539Z,-7.46
2018-12-14T03:46:09.142Z,-7.35
2018-12-14T03:48:36.875Z,-7.20
2018-12-14T03:51:04.496Z,-7.39
2018-12-14T03:53:32.897Z,-7.38
2018-12-14T03:56:00.680Z,-7.55
2018-12-14T03:58:28.318Z,-7.43
2018-12-14T04:00:55.985Z,-7.44
2018-12-14T04:03:23.988Z,-7.56
2018-12-14T04:05:51.825Z,-7.62
2018-12-14T04:08:19.414Z,-7.64
2018-12-14T04:10:47.074Z,-7.74
2018-12-14T04:13:14.689Z,-7.69
2018-12-14T04:15:42.356Z,-7.65
2018-12-14T04:18:10.484Z,-7.93
2018-12-14T04:20:38.094Z,-7.80
2018-12-14T04:23:05.715Z,-7.60
2018-12-14T04:25:33.347Z,-7.84
2018-12-14T04:28:01.007Z,-7.82
2018-12-14T04:30:28.617Z,-7.78
2018-12-14T04:32:56.912Z,-7.74
2018-12-14T04:35:24.704Z,-7.64
2018-12-14T04:37:52.323Z,-7.48
2018-12-14T04:40:20.013Z,-7.59
2018-12-14T04:42:48.916Z,-7.55
2018-12-14T04:45:17.022Z,-7.49
2018-12-14T04:47:44.669Z,-7.49
2018-12-14T04:50:13.869Z,-7.52
2018-12-14T04:52:41.823Z,-7.50
2018-12-14T04:55:09.412Z,-7.60
2018-12-14T04:57:37.067Z,-7.54
2018-12-14T05:00:07.726Z,-7.50
2018-12-14T05:02:35.439Z,-7.44
2018-12-14T05:05:03.197Z,-7.64
2018-12-14T05:07:30.861Z,-7.61
2018-12-14T05:09:58.512Z,-7.65
2018-12-14T05:12:26.184Z,-7.59
2018-12-14T05:14:54.117Z,-7.52
2018-12-14T05:17:21.759Z,-7.38
2018-12-14T05:19:49.339Z,-7.34
2018-12-14T05:22:16.952Z,-7.29
2018-12-14T05:24:44.674Z,-7.22
2018-12-14T05:27:12.768Z,-7.24
2018-12-14T05:29:40.693Z,-7.45
2018-12-14T05:32:08.435Z,-7.61
2018-12-14T05:34:36.131Z,-7.62
2018-12-14T05:37:03.745Z,-7.63
2018-12-14T05:39:31.319Z,-7.55
2018-12-14T05:41:58.969Z,-7.91
2018-12-14T05:44:26.571Z,-7.94
2018-12-14T05:46:54.260Z,-8.12
2018-12-14T05:49:22.205Z,-8.20
2018-12-14T05:51:49.913Z,-8.30
2018-12-14T05:54:20.398Z,-8.31
2018-12-14T05:56:48.249Z,-8.41
2018-12-14T05:59:18.435Z,-8.24
2018-12-14T06:01:46.177Z,-8.34
2018-12-14T06:04:14.522Z,-8.23
2018-12-14T06:06:42.369Z,-8.19
2018-12-14T06:09:10.596Z,-8.36
2018-12-14T06:11:38.240Z,-8.21
2018-12-14T06:14:05.970Z,-8.26
2018-12-14T06:16:33.556Z,-8.36
2018-12-14T06:19:01.433Z,-8.19
2018-12-14T06:21:29.753Z,-8.18
2018-12-14T06:23:58.372Z,-8.17
2018-12-14T06:26:26.028Z,-8.33
2018-12-14T06:28:59.091Z,-8.51
2018-12-14T06:31:26.674Z,-8.53
2018-12-14T06:33:54.321Z,-8.41
2018-12-14T06:36:21.951Z,-8.32
2018-12-14T06:38:49.637Z,-8.42
2018-12-14T06:41:17.280Z,-8.33
2018-12-14T06:43:44.932Z,-8.49
2018-12-14T06:46:12.599Z,-8.61
2018-12-14T06:48:40.256Z,-8.75
2018-12-14T06:51:08.331Z,-8.65
2018-12-14T06:53:35.981Z,-8.56
2018-12-14T06:56:03.606Z,-8.48
2018-12-14T06:58:31.238Z,-8.43
2018-12-14T07:00:58.897Z,-8.40
2018-12-14T07:03:26.512Z,-8.44
2018-12-14T07:05:54.161Z,-8.19
2018-12-14T07:08:21.826Z,-8.32
2018-12-14T07:10:49.437Z,-8.33
2018-12-14T07:13:21.859Z,-8.09
2018-12-14T07:15:46.724Z,-8.34
2018-12-14T07:18:14.381Z,-8.39
2018-12-14T07:20:42.114Z,-8.25
2018-12-14T07:23:09.784Z,-8.06
2018-12-14T07:25:37.447Z,-7.76
2018-12-14T07:28:05.009Z,-6.57
2018-12-14T07:30:32.680Z,-6.06
2018-12-14T07:33:00.903Z,-6.62
2018-12-14T07:35:28.646Z,-6.60
2018-12-14T07:37:56.350Z,-6.53
2018-12-14T07:40:24.042Z,-4.38
2018-12-14T07:42:51.725Z,-3.62
2018-12-14T07:45:19.497Z,-2.93
2018-12-14T07:47:47.082Z,-1.67
2018-12-14T07:50:14.811Z,-0.81
2018-12-14T07:52:42.553Z,-0.96
2018-12-14T07:55:10.331Z,-0.53
2018-12-14T07:57:37.992Z,0.93
2018-12-14T08:00:08.089Z,0.77
2018-12-14T08:02:35.736Z,1.28
2018-12-14T08:05:07.291Z,0.32
2018-12-14T08:07:36.115Z,0.27
2018-12-14T08:10:04.723Z,0.51
2018-12-14T08:12:32.404Z,-1.33
2018-12-14T08:15:00.149Z,-2.06
2018-12-14T08:17:27.999Z,-2.48
2018-12-14T08:19:55.772Z,-2.62
2018-12-14T08:22:23.623Z,-3.86
2018-12-14T08:24:51.522Z,-3.20
2018-12-14T08:27:19.524Z,-3.70
2018-12-14T08:29:48.132Z,-3.38
2018-12-14T08:32:15.862Z,-4.08
2018-12-14T08:34:50.787Z,-4.35
2018-12-14T08:37:15.841Z,-2.83
2018-12-14T08:39:43.588Z,-2.12
2018-12-14T08:42:11.216Z,-2.50
2018-12-14T08:44:39.236Z,-2.88
2018-12-14T08:47:07.407Z,-3.67
2018-12-14T08:49:35.042Z,-2.86
2018-12-14T08:52:02.748Z,-2.33
2018-12-14T08:54:30.414Z,-2.25
2018-12-14T08:56:58.262Z,-2.67
2018-12-14T08:59:25.917Z,-2.22
2018-12-14T09:01:53.697Z,-3.04
2018-12-14T09:04:21.482Z,-3.41
2018-12-14T09:06:49.292Z,-2.20
2018-12-14T09:09:20.701Z,-3.29
2018-12-14T09:11:49.555Z,-2.81
2018-12-14T09:14:17.599Z,-3.15
2018-12-14T09:16:45.567Z,-3.93
2018-12-14T09:19:13.210Z,-3.94
2018-12-14T09:21:40.877Z,-3.52
2018-12-14T09:24:10.137Z,-3.11
2018-12-14T09:26:37.784Z,-4.01
2018-12-14T09:29:05.577Z,-3.67
2018-12-14T09:31:33.171Z,-3.51
2018-12-14T09:34:00.811Z,-2.83
2018-12-14T09:36:28.433Z,-2.47
2018-12-14T09:38:56.060Z,-2.28
2018-12-14T09:41:23.770Z,-1.90
2018-12-14T09:43:54.317Z,-1.39
2018-12-14T09:46:21.084Z,-0.92
2018-12-14T09:48:48.678Z,0.01
2018-12-14T09:51:16.357Z,0.50
2018-12-14T09:53:44.036Z,-1.17
2018-12-14T09:56:12.096Z,-0.38
2018-12-14T09:58:39.959Z,0.65
2018-12-14T10:01:08.209Z,0.20
2018-12-14T10:03:36.012Z,0.59
2018-12-14T10:06:03.967Z,1.56
2018-12-14T10:08:31.873Z,-0.22
2018-12-14T10:11:00.117Z,1.53
2018-12-14T10:13:27.907Z,-0.05
2018-12-14T10:15:56.103Z,0.83
2018-12-14T10:18:24.572Z,2.21
2018-12-14T10:20:53.130Z,1.33
2018-12-14T10:23:20.984Z,0.75
2018-12-14T10:25:49.390Z,0.89
2018-12-14T10:28:17.433Z,1.52
2018-12-14T10:30:45.508Z,2.54
2018-12-14T10:33:13.065Z,3.40
2018-12-14T10:35:41.035Z,2.32
2018-12-14T10:38:08.771Z,3.02
2018-12-14T10:40:36.480Z,3.40
2018-12-14T10:43:05.209Z,3.16
2018-12-14T10:45:32.824Z,3.48
2018-12-14T10:48:00.819Z,2.83
2018-12-14T10:50:35.561Z,3.68
2018-12-14T10:52:58.049Z,2.85
2018-12-14T10:55:26.845Z,3.45
2018-12-14T10:57:54.925Z,3.52
2018-12-14T11:00:27.917Z,3.51
2018-12-14T11:02:55.682Z,4.16
2018-12-14T11:05:23.256Z,3.54
2018-12-14T11:07:51.134Z,3.83
2018-12-14T11:10:18.726Z,4.55
2018-12-14T11:12:46.415Z,4.58
2018-12-14T11:15:13.983Z,3.95
2018-12-14T11:17:41.566Z,4.57
2018-12-14T11:20:09.259Z,4.07
2018-12-14T11:22:36.999Z,3.90
2018-12-14T11:25:05.850Z,4.13
2018-12-14T11:27:33.721Z,4.03
2018-12-14T11:30:01.385Z,4.80
2018-12-14T11:32:29.149Z,4.22
2018-12-14T11:34:57.018Z,3.79
2018-12-14T11:37:24.910Z,3.17
2018-12-14T11:39:52.803Z,4.10
2018-12-14T11:42:21.187Z,4.79
2018-12-14T11:44:49.850Z,4.01
2018-12-14T11:47:18.247Z,4.78
2018-12-14T11:49:46.348Z,4.58
2018-12-14T11:52:14.360Z,4.81
2018-12-14T11:54:41.942Z,4.88
2018-12-14T11:57:09.636Z,4.61
2018-12-14T11:59:37.257Z,3.61
2018-12-14T12:02:04.930Z,4.67
2018-12-14T12:04:33.039Z,4.43
2018-12-14T12:07:00.852Z,4.34
2018-12-14T12:09:28.557Z,3.67
2018-12-14T12:11:56.723Z,3.40
2018-12-14T12:14:27.099Z,3.89
2018-12-14T12:16:54.587Z,3.57
2018-12-14T12:19:22.399Z,3.44
2018-12-14T12:21:50.475Z,3.87
2018-12-14T12:24:18.274Z,3.85
2018-12-14T12:26:47.172Z,3.94
2018-12-14T12:29:14.991Z,4.07
2018-12-14T12:31:43.562Z,4.14
2018-12-14T12:34:11.286Z,4.51
2018-12-14T12:36:38.922Z,4.75
2018-12-14T12:39:06.839Z,4.32
2018-12-14T12:41:34.415Z,4.55
2018-12-14T12:44:02.302Z,3.97
2018-12-14T12:46:29.927Z,4.41
2018-12-14T12:48:58.670Z,4.11
2018-12-14T12:51:26.689Z,4.09
2018-12-14T12:53:54.303Z,3.75
2018-12-14T12:56:22.274Z,3.81
2018-12-14T12:58:50.233Z,2.67
2018-12-14T13:01:18.124Z,2.83
2018-12-14T13:03:46.648Z,2.99
2018-12-14T13:06:15.164Z,3.03
2018-12-14T13:08:42.883Z,2.74
2018-12-14T13:11:12.203Z,3.00
2018-12-14T13:13:39.886Z,3.01
2018-12-14T13:16:07.565Z,3.25
2018-12-14T13:18:46.729Z,3.30
2018-12-14T13:21:15.557Z,2.53
2018-12-14T13:23:43.265Z,2.38
2018-12-14T13:26:12.614Z,3.08
2018-12-14T13:28:40.458Z,2.66
2018-12-14T13:31:08.107Z,2.44
2018-12-14T13:33:36.506Z,2.38
2018-12-14T13:36:04.202Z,2.68
2018-12-14T13:38:31.842Z,2.72
2018-12-14T13:40:59.520Z,2.57
2018-12-14T13:43:29.282Z,2.66
2018-12-14T13:45:57.025Z,2.78
2018-12-14T13:48:24.660Z,2.77
2018-12-14T13:50:52.482Z,2.48
2018-12-14T13:53:21.171Z,2.06
2018-12-14T13:55:48.860Z,1.95
2018-12-14T13:58:16.516Z,2.35
2018-12-14T14:00:44.177Z,2.48
2018-12-14T14:03:11.979Z,2.54
2018-12-14T14:05:39.651Z,2.19
2018-12-14T14:08:07.383Z,1.92
2018-12-14T14:10:35.014Z,1.58
2018-12-14T14:13:02.683Z,1.66
2018-12-14T14:15:30.422Z,1.49
2018-12-14T14:17:58.838Z,1.33
2018-12-14T14:20:26.472Z,0.83
2018-12-14T14:22:54.115Z,0.97
2018-12-14T14:25:21.838Z,1.03
2018-12-14T14:27:49.472Z,0.89
2018-12-14T14:30:17.136Z,1.09
2018-12-14T14:32:44.788Z,1.15
2018-12-14T14:35:12.784Z,1.33
2018-12-14T14:37:40.447Z,1.04
2018-12-14T14:40:08.063Z,0.96
2018-12-14T14:42:35.760Z,0.88
2018-12-14T14:45:04.922Z,0.99
2018-12-14T14:47:32.676Z,0.69
2018-12-14T14:50:00.440Z,0.55
2018-12-14T14:52:28.878Z,0.52
2018-12-14T14:54:57.501Z,0.28
2018-12-14T14:57:25.171Z,0.24
2018-12-14T14:59:53.585Z,0.36
2018-12-14T15:02:21.221Z,0.07
2018-12-14T15:04:49.373Z,-0.27
2018-12-14T15:07:17.086Z,-0.50
2018-12-14T15:09:47.242Z,-0.38
2018-12-14T15:12:15.026Z,-0.55
2018-12-14T15:14:44.096Z,-0.58
2018-12-14T15:17:12.556Z,-0.54
2018-12-14T15:19:40.383Z,-0.74
2018-12-14T15:22:08.663Z,-1.11
2018-12-14T15:24:36.947Z,-1.15
2018-12-14T15:27:04.708Z,-0.98
2018-12-14T15:29:32.693Z,-1.24
2018-12-14T15:32:01.171Z,-1.32
2018-12-14T15:34:28.825Z,-1.23
2018-12-14T15:36:57.490Z,-1.18
2018-12-14T15:39:25.777Z,-1.35
2018-12-14T15:41:53.594Z,-1.40
2018-12-14T15:44:21.412Z,-1.49
2018-12-14T15:46:49.084Z,-1.51
2018-12-14T15:49:16.851Z,-1.43
2018-12-14T15:51:44.857Z,-1.33
2018-12-14T15:54:14.068Z,-1.53
2018-12-14T15:56:41.778Z,-1.63
2018-12-14T15:59:09.564Z,-1.66
2018-12-14T16:01:37.232Z,-1.71
2018-12-14T16:04:04.935Z,-1.67
2018-12-14T16:06:32.534Z,-1.72
2018-12-14T16:09:01.184Z,-1.82
2018-12-14T16:11:28.851Z,-1.76
2018-12-14T16:13:56.668Z,-1.75
2018-12-14T16:16:24.468Z,-1.82
2018-12-14T16:18:52.257Z,-1.92
2018-12-14T16:21:20.017Z,-1.91
2018-12-14T16:23:47.649Z,-1.82
2018-12-14T16:26:15.466Z,-2.08
2018-12-14T16:28:43.815Z,-2.11
2018-12-14T16:31:11.540Z,-2.04
2018-12-14T16:33:39.273Z,-2.00
2018-12-14T16:36:06.983Z,-1.81
2018-12-14T16:38:34.668Z,-2.01
2018-12-14T16:41:02.328Z,-1.97
2018-12-14T16:43:29.914Z,-2.06
2018-12-14T16:45:57.608Z,-2.24
2018-12-14T16:48:25.271Z,-2.42
2018-12-14T16:50:53.088Z,-2.37
2018-12-14T16:53:22.265Z,-2.42
2018-12-14T16:55:49.954Z,-2.60
2018-12-14T16:58:18.511Z,-2.52
2018-12-14T17:00:46.141Z,-2.47
2018-12-14T17:03:15.193Z,-2.43
2018-12-14T17:05:42.877Z,-2.61
2018-12-14T17:08:10.906Z,-2.50
2018-12-14T17:10:38.617Z,-2.49
2018-12-14T17:13:06.320Z,-2.46
2018-12-14T17:15:33.941Z,-2.59
2018-12-14T17:18:01.642Z,-2.63
2018-12-14T17:20:29.389Z,-2.63
2018-12-14T17:22:57.149Z,-2.61
2018-12-14T17:25:25.965Z,-2.64
2018-12-14T17:27:54.785Z,-2.63
2018-12-14T17:30:22.542Z,-2.56
2018-12-14T17:32:50.261Z,-2.54
2018-12-14T17:35:18.535Z,-2.51
2018-12-14T17:37:46.213Z,-2.39
2018-12-14T17:40:14.004Z,-2.38
2018-12-14T17:42:41.656Z,-2.27
2018-12-14T17:45:09.454Z,-2.53
2018-12-14T17:47:38.555Z,-2.74
2018-12-14T17:50:08.231Z,-2.70
2018-12-14T17:52:35.927Z,-2.69
2018-12-14T17:55:03.671Z,-2.78
2018-12-14T17:57:31.692Z,-2.76
2018-12-14T17:59:59.721Z,-2.75
2018-12-14T18:02:27.595Z,-2.80
2018-12-14T18:04:56.370Z,-2.79
2018-12-14T18:07:23.979Z,-2.83
2018-12-14T18:09:55.981Z,-2.85
2018-12-14T18:12:25.343Z,-2.84
2018-12-14T18:14:57.006Z,-2.90
2018-12-14T18:17:26.422Z,-2.92
2018-12-14T18:19:56.779Z,-2.90
2018-12-14T18:22:27.735Z,-2.94
2018-12-14T18:27:33.579Z,-3.05
2018-12-14T18:30:01.592Z,-3.30
2018-12-14T18:32:29.309Z,-3.22
2018-12-14T18:34:57.073Z,-3.28
2018-12-14T18:37:24.874Z,-3.31
2018-12-14T18:39:52.570Z,-3.34
2018-12-14T18:42:20.240Z,-3.21
2018-12-14T18:44:48.102Z,-3.28
2018-12-14T18:47:15.830Z,-3.34
2018-12-14T18:49:44.568Z,-3.32
2018-12-14T18:52:12.264Z,-3.41
2018-12-14T18:54:39.986Z,-3.31
2018-12-14T18:57:07.642Z,-3.27
2018-12-14T18:59:35.343Z,-3.28
2018-12-14T19:02:02.970Z,-3.31
2018-12-14T19:04:30.582Z,-3.42
2018-12-14T19:06:58.531Z,-3.45
2018-12-14T19:09:26.442Z,-3.68
2018-12-14T19:11:54.145Z,-3.63
2018-12-14T19:14:21.893Z,-3.43
2018-12-14T19:16:49.579Z,-3.40
2018-12-14T19:19:17.367Z,-3.43
2018-12-14T19:21:44.971Z,-3.42
2018-12-14T19:24:12.607Z,-3.59
2018-12-14T19:26:40.280Z,-3.67
2018-12-14T19:29:08.065Z,-3.75
2018-12-14T19:31:35.726Z,-3.76
2018-12-14T19:34:03.385Z,-3.76
2018-12-14T19:36:31.065Z,-3.99
2018-12-14T19:38:59.101Z,-4.32
2018-12-14T19:41:26.776Z,-4.24
2018-12-14T19:43:54.358Z,-4.19
2018-12-14T19:46:22.095Z,-4.45
2018-12-14T19:48:49.694Z,-4.38
2018-12-14T19:51:17.392Z,-4.43
2018-12-14T19:53:45.022Z,-4.26
2018-12-14T19:56:12.894Z,-4.61
2018-12-14T19:58:40.541Z,-4.64
2018-12-14T20:01:08.132Z,-4.55
2018-12-14T20:03:35.848Z,-4.44
2018-12-14T20:06:03.719Z,-4.63
2018-12-14T20:08:31.398Z,-4.64
2018-12-14T20:10:59.083Z,-4.69
2018-12-14T20:13:26.850Z,-4.83
2018-12-14T20:15:57.427Z,-4.79
2018-12-14T20:18:24.213Z,-5.06
2018-12-14T20:20:51.813Z,-5.15
2018-12-14T20:23:19.422Z,-5.19
2018-12-14T20:25:47.218Z,-5.03
2018-12-14T20:28:14.815Z,-4.93
2018-12-14T20:30:42.498Z,-4.99
2018-12-14T20:33:10.529Z,-4.93
2018-12-14T20:35:38.149Z,-4.88
2018-12-14T20:38:06.249Z,-4.95
2018-12-14T20:40:33.932Z,-4.94
2018-12-14T20:43:01.793Z,-4.94
2018-12-14T20:45:30.064Z,-4.98
2018-12-14T20:47:57.833Z,-5.10
2018-12-14T20:50:25.699Z,-5.13
2018-12-14T20:52:53.313Z,-5.29
2018-12-14T20:55:21.016Z,-5.25
2018-12-14T20:57:48.596Z,-5.20
2018-12-14T21:00:16.333Z,-5.22
2018-12-14T21:02:44.121Z,-5.33
2018-12-14T21:05:11.783Z,-5.24
2018-12-14T21:07:39.435Z,-5.19
2018-12-14T21:10:07.296Z,-5.23
2018-12-14T21:12:34.889Z,-5.17
2018-12-14T21:15:02.614Z,-5.24
2018-12-14T21:17:30.278Z,-5.28
2018-12-14T21:19:58.012Z,-5.24
2018-12-14T21:22:25.642Z,-5.10
2018-12-14T21:24:53.913Z,-5.05
2018-12-14T21:27:21.585Z,-5.38
2018-12-14T21:29:50.785Z,-5.20
2018-12-14T21:32:18.504Z,-5.18
2018-12-14T21:34:46.277Z,-5.05
2018-12-14T21:37:13.940Z,-5.09
2018-12-14T21:39:41.596Z,-5.07
2018-12-14T21:42:10.010Z,-4.95
2018-12-14T21:44:37.617Z,-4.97
2018-12-14T21:47:05.331Z,-5.02
2018-12-14T21:49:33.287Z,-4.85
2018-12-14T21:52:01.071Z,-4.78
2018-12-14T21:54:29.631Z,-4.69
2018-12-14T21:56:57.389Z,-4.65
2018-12-14T21:59:25.066Z,-4.72
2018-12-14T22:01:52.771Z,-4.74
2018-12-14T22:04:21.520Z,-4.83
2018-12-14T22:06:49.291Z,-4.80
2018-12-14T22:09:16.906Z,-4.74
2018-12-14T22:11:44.577Z,-4.68
2018-12-14T22:14:12.334Z,-4.66
2018-12-14T22:16:39.929Z,-4.62
2018-12-14T22:19:07.630Z,-4.58
2018-12-14T22:21:35.246Z,-4.61
2018-12-14T22:24:02.951Z,-4.62
2018-12-14T22:26:30.672Z,-4.58
2018-12-14T22:28:58.323Z,-4.59
2018-12-14T22:31:25.998Z,-4.61
2018-12-14T22:33:53.588Z,-4.68
2018-12-14T22:36:21.233Z,-5.00
2018-12-14T22:38:49.187Z,-5.00
2018-12-14T22:41:16.850Z,-5.02
2018-12-14T22:43:44.472Z,-4.84
2018-12-14T22:46:12.159Z,-4.80
2018-12-14T22:48:39.750Z,-4.70
2018-12-14T22:51:07.474Z,-4.66
2018-12-14T22:53:35.116Z,-4.75
2018-12-14T22:56:02.958Z,-4.74
2018-12-14T22:58:30.648Z,-4.65
2018-12-14T23:00:58.376Z,-4.55
2018-12-14T23:03:26.076Z,-4.49
2018-12-14T23:05:53.722Z,-4.60
2018-12-14T23:08:21.297Z,-4.60
2018-12-14T23:10:48.925Z,-4.59
2018-12-14T23:13:16.512Z,-4.62
2018-12-14T23:15:44.169Z,-4.78
2018-12-14T23:18:11.792Z,-4.76
2018-12-14T23:20:39.649Z,-4.64
2018-12-14T23:23:07.248Z,-4.61
2018-12-14T23:25:34.909Z,-4.78
2018-12-14T23:28:02.538Z,-4.73
2018-12-14T23:30:30.197Z,-4.61
2018-12-14T23:32:57.772Z,-4.67
2018-12-14T23:35:25.430Z,-4.78
2018-12-14T23:37:53.081Z,-4.73
2018-12-14T23:40:20.892Z,-4.84
2018-12-14T23:42:48.537Z,-4.70
2018-12-14T23:45:16.169Z,-4.74
2018-12-14T23:47:43.830Z,-4.79
2018-12-14T23:50:11.563Z,-4.70
2018-12-14T23:52:39.206Z,-4.54
2018-12-14T23:55:06.803Z,-4.58
2018-12-14T23:57:34.454Z,-4.45
